Time;durP1;ratioP1;P1;durP2;ratioP2;P2;SDS_P1;SDS_P2;PMS_P1;PMS_P2;Temp;Humidity;BMP_temperature;BMP_pressure;BME280_temperature;BME280_humidity;BME280_pressure;Samples;Min_cycle;Max_cycle;Signal;HPM_P1;HPM_P2
2022/12/22 03:28:12;;;;;;;58.47;27.27;;;;;;;;;;5060983;28;20059;-91
2022/12/22 03:30:38;;;;;;;69.10;28.15;;;;;;;;;;5058128;28;20412;-91
2022/12/22 03:33:04;;;;;;;65.13;27.15;;;;;;;;;;5040743;28;20415;-91
2022/12/22 03:35:30;;;;;;;61.47;27.83;;;;;;;;;;5075119;28;20055;-92
2022/12/22 03:37:56;;;;;;;60.97;28.73;;;;;;;;;;5058331;28;20044;-92
2022/12/22 03:40:22;;;;;;;60.97;27.33;;;;;;;;;;5057993;28;20056;-91
2022/12/22 03:48:17;;;;;;;62.30;26.40;;;;;;;;;;5074410;28;20051;-91
2022/12/22 03:50:44;;;;;;;53.58;25.67;;;;;;;;;;5058146;28;20056;-94
2022/12/22 03:53:10;;;;;;;64.28;27.08;;;;;;;;;;5058335;28;20070;-96
2022/12/22 03:55:36;;;;;;;65.95;26.60;;;;;;;;;;5059154;28;20044;-91
2022/12/22 03:58:02;;;;;;;63.97;27.33;;;;;;;;;;5041535;28;20106;-92
2022/12/22 04:00:28;;;;;;;58.75;26.90;;;;;;;;;;5042224;28;20048;-93
2022/12/22 04:02:54;;;;;;;62.60;26.60;;;;;;;;;;5057964;28;20500;-94
2022/12/22 04:05:20;;;;;;;53.55;26.20;;;;;;;;;;5057988;28;20060;-96
2022/12/22 04:07:46;;;;;;;57.28;25.80;;;;;;;;;;5058337;28;20508;-94
2022/12/22 04:12:56;;;;;;;;;;;;;;;;;;5060687;28;20055;-94
2022/12/22 04:15:23;;;;;;;54.50;24.67;;;;;;;;;;5074145;28;19924;-94
2022/12/22 04:17:49;;;;;;;61.28;27.25;;;;;;;;;;5057788;28;20040;-93
2022/12/22 04:20:16;;;;;;;52.03;26.20;;;;;;;;;;5057919;28;20054;-93
2022/12/22 04:22:42;;;;;;;52.00;26.30;;;;;;;;;;5041414;28;20056;-92
2022/12/22 04:25:08;;;;;;;67.75;27.88;;;;;;;;;;5041253;28;20059;-92
2022/12/22 04:27:34;;;;;;;58.65;26.52;;;;;;;;;;5057488;28;20044;-92
2022/12/22 04:30:00;;;;;;;62.22;27.98;;;;;;;;;;5057659;28;20050;-92
2022/12/22 04:32:26;;;;;;;66.80;25.33;;;;;;;;;;5041193;28;20041;-93
2022/12/22 04:34:52;;;;;;;62.75;26.60;;;;;;;;;;5041378;28;20064;-93
2022/12/22 04:37:18;;;;;;;65.30;26.95;;;;;;;;;;5057835;28;20044;-92
2022/12/22 04:39:45;;;;;;;64.72;28.50;;;;;;;;;;5057471;28;20052;-92
2022/12/22 04:42:11;;;;;;;54.90;26.77;;;;;;;;;;5074201;28;20105;-92
2022/12/22 04:44:37;;;;;;;66.90;26.77;;;;;;;;;;5058891;28;20090;-91
2022/12/22 04:47:03;;;;;;;59.58;27.00;;;;;;;;;;5044522;28;20052;-92
2022/12/22 04:49:29;;;;;;;74.35;28.65;;;;;;;;;;5060792;28;20051;-92
2022/12/22 04:51:55;;;;;;;65.20;28.73;;;;;;;;;;5061244;28;20063;-91
2022/12/22 04:54:21;;;;;;;65.22;26.13;;;;;;;;;;5044517;28;20074;-91
2022/12/22 04:56:47;;;;;;;61.17;26.50;;;;;;;;;;5060771;28;20040;-92
2022/12/22 04:59:13;;;;;;;65.22;25.33;;;;;;;;;;5045251;28;20074;-91
2022/12/22 05:01:39;;;;;;;68.22;26.42;;;;;;;;;;5078044;28;20048;-93
2022/12/22 05:04:05;;;;;;;70.45;27.08;;;;;;;;;;5061299;28;20052;-93
2022/12/22 05:06:31;;;;;;;67.63;27.17;;;;;;;;;;5061729;28;20129;-92
2022/12/22 05:08:57;;;;;;;63.13;25.67;;;;;;;;;;5060901;28;20118;-93
2022/12/22 05:11:23;;;;;;;57.05;24.60;;;;;;;;;;5061051;28;20230;-92
2022/12/22 05:13:49;;;;;;;71.47;27.27;;;;;;;;;;5045162;28;20055;-95
2022/12/22 05:16:16;;;;;;;67.20;26.30;;;;;;;;;;5060743;28;20102;-92
2022/12/22 05:18:43;;;;;;;61.38;24.08;;;;;;;;;;5077738;28;20056;-93
2022/12/22 05:21:16;;;;;;;52.85;23.30;;;;;;;;;;5077843;28;20040;-95
2022/12/22 05:23:43;;;;;;;57.58;24.90;;;;;;;;;;5061300;28;20052;-94
2022/12/22 05:26:09;;;;;;;51.10;23.48;;;;;;;;;;5060932;28;20040;-93
2022/12/22 05:28:35;;;;;;;49.80;23.55;;;;;;;;;;5044759;28;20513;-94
2022/12/22 05:31:05;;;;;;;58.45;24.02;;;;;;;;;;5044152;28;20143;-92
2022/12/22 05:33:31;;;;;;;55.03;24.45;;;;;;;;;;5060660;28;20527;-93
2022/12/22 05:35:57;;;;;;;54.50;23.83;;;;;;;;;;5060280;28;20052;-91
2022/12/22 05:38:24;;;;;;;48.28;22.80;;;;;;;;;;5043744;28;20200;-93
2022/12/22 05:40:50;;;;;;;51.55;21.88;;;;;;;;;;5062072;28;20056;-92
2022/12/22 05:43:16;;;;;;;56.40;24.38;;;;;;;;;;5061765;28;20048;-92
2022/12/22 05:45:44;;;;;;;48.40;21.88;;;;;;;;;;5059893;28;20052;-91
2022/12/22 05:48:10;;;;;;;58.85;25.27;;;;;;;;;;5059842;28;20392;-91
2022/12/22 05:50:36;;;;;;;43.75;21.83;;;;;;;;;;5059617;28;20127;-92
2022/12/22 05:53:03;;;;;;;50.38;21.73;;;;;;;;;;5043616;28;20064;-92
2022/12/22 05:55:29;;;;;;;49.78;22.35;;;;;;;;;;5076667;28;20048;-92
2022/12/22 05:57:55;;;;;;;46.92;20.33;;;;;;;;;;5060047;28;20413;-92
2022/12/22 06:00:21;;;;;;;52.78;21.38;;;;;;;;;;5060306;28;20112;-91
2022/12/22 06:02:50;;;;;;;53.80;22.95;;;;;;;;;;5045140;28;20048;-92
2022/12/22 06:05:16;;;;;;;52.47;23.35;;;;;;;;;;5043923;28;20158;-92
2022/12/22 06:07:42;;;;;;;52.47;20.85;;;;;;;;;;5060098;28;20044;-92
2022/12/22 06:10:09;;;;;;;51.50;20.58;;;;;;;;;;5043177;28;20055;-92
2022/12/22 06:12:35;;;;;;;46.95;20.80;;;;;;;;;;5059419;28;20055;-93
2022/12/22 06:15:01;;;;;;;48.05;20.70;;;;;;;;;;5075996;28;20052;-91
2022/12/22 06:17:27;;;;;;;50.45;20.92;;;;;;;;;;5043361;28;20056;-92
2022/12/22 06:19:53;;;;;;;53.67;20.90;;;;;;;;;;5042911;28;20144;-92
2022/12/22 06:22:19;;;;;;;51.08;21.45;;;;;;;;;;5059158;28;20052;-92
2022/12/22 06:24:45;;;;;;;56.80;21.70;;;;;;;;;;5059490;28;20087;-92
2022/12/22 06:27:11;;;;;;;62.85;23.95;;;;;;;;;;5042670;28;20158;-92
2022/12/22 06:29:37;;;;;;;61.08;25.30;;;;;;;;;;5075898;28;20134;-92
2022/12/22 06:32:04;;;;;;;56.70;24.00;;;;;;;;;;5059486;28;20044;-92
2022/12/22 06:34:30;;;;;;;82.88;25.05;;;;;;;;;;5043219;28;20048;-92
2022/12/22 06:36:56;;;;;;;53.50;23.33;;;;;;;;;;5043162;28;20048;-96
2022/12/22 06:39:22;;;;;;;83.50;27.10;;;;;;;;;;5059709;28;20739;-95
2022/12/22 06:44:32;;;;;;;45.72;20.70;;;;;;;;;;5076283;28;20570;-95
2022/12/22 06:46:58;;;;;;;64.43;23.70;;;;;;;;;;5059392;28;20078;-95
2022/12/22 06:49:25;;;;;;;43.28;18.35;;;;;;;;;;5059310;28;20484;-93
2022/12/22 06:51:51;;;;;;;45.60;18.77;;;;;;;;;;5059716;28;20048;-95
2022/12/22 06:54:17;;;;;;;42.22;17.58;;;;;;;;;;5043131;28;20056;-95
2022/12/22 06:56:43;;;;;;;44.83;18.20;;;;;;;;;;5043173;28;20047;-94
2022/12/22 06:59:09;;;;;;;43.88;17.73;;;;;;;;;;5059626;28;20052;-95
2022/12/22 07:01:35;;;;;;;31.80;14.80;;;;;;;;;;5043112;28;20044;-96
2022/12/22 07:04:01;;;;;;;34.58;16.25;;;;;;;;;;5043945;28;20048;-96
2022/12/22 07:06:27;;;;;;;37.95;15.63;;;;;;;;;;5059531;28;20127;-95
2022/12/22 07:08:53;;;;;;;40.58;14.05;;;;;;;;;;5042664;28;20591;-95
2022/12/22 07:11:19;;;;;;;40.00;17.02;;;;;;;;;;5043851;28;20142;-94
2022/12/22 07:13:46;;;;;;;36.20;15.48;;;;;;;;;;5058996;28;20040;-93
2022/12/22 07:16:12;;;;;;;37.17;15.93;;;;;;;;;;5058360;28;20052;-93
2022/12/22 07:18:41;;;;;;;30.80;11.48;;;;;;;;;;5042203;28;20048;-93
2022/12/22 07:21:09;;;;;;;33.85;14.25;;;;;;;;;;5075471;28;20121;-92
2022/12/22 07:23:35;;;;;;;36.65;14.68;;;;;;;;;;5058713;28;20055;-92
2022/12/22 07:26:02;;;;;;;44.95;15.07;;;;;;;;;;5058604;28;20075;-93
2022/12/22 07:28:28;;;;;;;31.70;13.63;;;;;;;;;;5058454;28;20040;-93
2022/12/22 07:30:54;;;;;;;36.30;14.50;;;;;;;;;;5058745;28;20055;-92
2022/12/22 07:33:20;;;;;;;36.55;14.95;;;;;;;;;;5058492;28;20043;-92
2022/12/22 07:35:46;;;;;;;50.80;15.48;;;;;;;;;;5058458;28;20051;-92
2022/12/22 07:38:12;;;;;;;52.00;16.77;;;;;;;;;;5041751;28;20135;-92
2022/12/22 07:40:38;;;;;;;50.55;16.52;;;;;;;;;;5058400;28;20051;-92
2022/12/22 07:43:05;;;;;;;45.38;15.68;;;;;;;;;;5041851;28;20135;-93
2022/12/22 07:45:32;;;;;;;31.92;13.00;;;;;;;;;;5057883;28;20087;-92
2022/12/22 07:47:59;;;;;;;42.92;13.57;;;;;;;;;;5058122;28;20048;-92
2022/12/22 07:50:28;;;;;;;37.05;13.13;;;;;;;;;;5073144;28;20055;-92
2022/12/22 07:52:55;;;;;;;35.08;13.82;;;;;;;;;;5074920;28;20098;-92
2022/12/22 07:55:22;;;;;;;42.17;14.43;;;;;;;;;;5074300;28;20404;-93
2022/12/22 07:57:48;;;;;;;35.83;13.77;;;;;;;;;;5074460;28;20055;-92
2022/12/22 08:00:15;;;;;;;30.42;13.20;;;;;;;;;;5058322;28;20040;-91
2022/12/22 08:02:41;;;;;;;46.92;15.88;;;;;;;;;;5074868;28;20055;-93
2022/12/22 08:05:08;;;;;;;45.85;14.63;;;;;;;;;;5071352;28;20044;-92
2022/12/22 08:07:34;;;;;;;76.13;16.98;;;;;;;;;;5041307;28;20044;-92
2022/12/22 08:10:00;;;;;;;63.10;15.02;;;;;;;;;;5074790;28;20055;-92
2022/12/22 08:12:28;;;;;;;78.85;16.88;;;;;;;;;;5058060;28;20052;-92
2022/12/22 08:14:54;;;;;;;78.22;15.40;;;;;;;;;;5058581;28;20052;-92
2022/12/22 08:17:20;;;;;;;57.25;11.60;;;;;;;;;;5041367;28;20098;-92
2022/12/22 08:19:47;;;;;;;79.25;14.93;;;;;;;;;;5076100;28;20052;-92
2022/12/22 08:22:13;;;;;;;60.67;13.57;;;;;;;;;;5061819;28;20055;-92
2022/12/22 08:24:39;;;;;;;73.30;15.88;;;;;;;;;;5045453;28;20110;-92
2022/12/22 08:27:10;;;;;;;59.55;15.07;;;;;;;;;;5045141;28;20051;-92
2022/12/22 08:29:43;;;;;;;49.88;14.43;;;;;;;;;;5061767;28;20048;-94
2022/12/22 08:32:09;;;;;;;78.38;16.13;;;;;;;;;;5062096;28;20044;-94
2022/12/22 08:34:35;;;;;;;52.13;13.98;;;;;;;;;;5045327;28;20048;-95
2022/12/22 08:37:02;;;;;;;98.60;15.27;;;;;;;;;;5045235;28;20138;-96
2022/12/22 08:39:32;;;;;;;62.20;12.55;;;;;;;;;;5062163;28;20056;-95
2022/12/22 08:41:59;;;;;;;74.50;13.75;;;;;;;;;;5078822;28;20055;-94
2022/12/22 08:44:27;;;;;;;53.00;11.95;;;;;;;;;;5062227;28;20135;-93
2022/12/22 08:46:53;;;;;;;31.42;9.00;;;;;;;;;;5062024;28;20048;-95
2022/12/22 08:49:20;;;;;;;39.47;9.93;;;;;;;;;;5062011;28;20048;-93
2022/12/22 08:51:46;;;;;;;37.53;9.32;;;;;;;;;;5061963;28;20485;-93
2022/12/22 08:54:12;;;;;;;38.20;10.63;;;;;;;;;;5061354;28;20131;-95
2022/12/22 08:56:38;;;;;;;64.07;10.63;;;;;;;;;;5062009;28;20044;-95
2022/12/22 08:59:06;;;;;;;66.93;9.13;;;;;;;;;;5061805;28;20578;-96
2022/12/22 09:01:33;;;;;;;61.67;10.60;;;;;;;;;;5045568;28;20052;-96
2022/12/22 09:03:59;;;;;;;95.03;12.85;;;;;;;;;;5062055;28;20193;-93
2022/12/22 09:06:26;;;;;;;44.22;8.02;;;;;;;;;;5061200;28;20047;-92
2022/12/22 09:08:55;;;;;;;26.92;8.23;;;;;;;;;;5061369;28;20521;-92
2022/12/22 09:11:22;;;;;;;73.35;11.73;;;;;;;;;;5061086;28;20551;-92
2022/12/22 09:13:49;;;;;;;33.92;8.85;;;;;;;;;;5044487;28;20512;-92
2022/12/22 09:16:15;;;;;;;23.90;8.30;;;;;;;;;;5060885;28;20083;-92
2022/12/22 09:18:41;;;;;;;16.15;7.03;;;;;;;;;;5044304;28;20044;-92
2022/12/22 09:21:07;;;;;;;18.88;7.90;;;;;;;;;;5061218;28;20091;-92
2022/12/22 09:23:34;;;;;;;23.77;7.25;;;;;;;;;;5060732;28;20051;-92
2022/12/22 09:26:00;;;;;;;14.07;7.93;;;;;;;;;;5044289;28;20381;-92
2022/12/22 09:28:26;;;;;;;15.88;8.27;;;;;;;;;;5044636;28;20054;-92
2022/12/22 09:30:52;;;;;;;25.05;8.02;;;;;;;;;;5042955;28;20048;-92
2022/12/22 09:33:18;;;;;;;22.52;8.88;;;;;;;;;;5060627;28;20130;-92
2022/12/22 09:35:44;;;;;;;16.73;8.27;;;;;;;;;;5060481;28;20055;-91
2022/12/22 09:38:10;;;;;;;35.60;8.77;;;;;;;;;;5060868;28;20071;-92
2022/12/22 09:40:37;;;;;;;17.15;8.32;;;;;;;;;;5044229;28;20048;-95
2022/12/22 09:43:03;;;;;;;14.10;7.45;;;;;;;;;;5060745;28;20048;-91
2022/12/22 09:45:32;;;;;;;18.27;7.95;;;;;;;;;;5060763;28;20044;-95
2022/12/22 09:48:00;;;;;;;22.77;8.80;;;;;;;;;;5060925;28;20443;-94
2022/12/22 09:50:27;;;;;;;16.88;7.93;;;;;;;;;;5060239;28;20497;-96
2022/12/22 09:52:57;;;;;;;15.02;6.88;;;;;;;;;;5060815;28;20098;-94
2022/12/22 09:55:23;;;;;;;17.08;8.13;;;;;;;;;;5060903;28;20077;-94
2022/12/22 09:57:49;;;;;;;16.90;7.28;;;;;;;;;;5077061;28;20133;-95
2022/12/22 10:00:16;;;;;;;14.75;7.40;;;;;;;;;;5060539;28;20048;-94
2022/12/22 10:02:57;;;;;;;14.93;7.72;;;;;;;;;;5060206;28;20142;-95
2022/12/22 10:05:27;;;;;;;19.63;7.20;;;;;;;;;;5060696;28;20063;-95
2022/12/22 10:07:57;;;;;;;18.13;7.47;;;;;;;;;;5060975;28;20055;-93
2022/12/22 10:10:26;;;;;;;12.77;6.90;;;;;;;;;;5060056;28;20142;-92
2022/12/22 10:12:55;;;;;;;15.43;7.18;;;;;;;;;;5060698;28;20060;-94
2022/12/22 10:15:21;;;;;;;17.48;7.38;;;;;;;;;;5060377;28;20060;-93
2022/12/22 10:17:49;;;;;;;15.27;7.60;;;;;;;;;;5060153;28;20097;-93
2022/12/22 10:20:19;;;;;;;14.20;7.28;;;;;;;;;;5060520;28;20044;-94
2022/12/22 10:22:53;;;;;;;12.95;6.55;;;;;;;;;;5059490;28;20052;-92
2022/12/22 10:25:25;;;;;;;13.60;6.85;;;;;;;;;;5059378;28;20055;-92
2022/12/22 10:27:52;;;;;;;17.15;6.57;;;;;;;;;;5059400;28;20056;-91
2022/12/22 10:30:30;;;;;;;18.05;6.47;;;;;;;;;;5076175;28;20084;-92
2022/12/22 10:33:05;;;;;;;13.65;5.68;;;;;;;;;;5059168;28;20055;-92
2022/12/22 10:35:50;;;;;;;17.08;6.25;;;;;;;;;;5059387;28;20396;-92
2022/12/22 10:38:22;;;;;;;16.40;5.47;;;;;;;;;;5059030;28;20048;-91
2022/12/22 10:40:53;;;;;;;11.50;4.55;;;;;;;;;;5059447;28;20134;-92
2022/12/22 10:43:24;;;;;;;7.18;4.32;;;;;;;;;;5058824;28;20062;-91
2022/12/22 10:45:51;;;;;;;13.57;5.20;;;;;;;;;;5076086;28;20048;-91
2022/12/22 10:48:24;;;;;;;9.13;4.15;;;;;;;;;;5059198;28;20055;-92
2022/12/22 10:50:50;;;;;;;13.57;4.32;;;;;;;;;;5059086;28;20082;-91
2022/12/22 10:53:16;;;;;;;15.35;4.70;;;;;;;;;;5059452;28;20047;-92
2022/12/22 10:55:43;;;;;;;8.73;4.18;;;;;;;;;;5058885;28;20124;-91
2022/12/22 10:58:09;;;;;;;10.70;4.22;;;;;;;;;;5042621;28;20051;-92
2022/12/22 11:00:36;;;;;;;12.95;4.90;;;;;;;;;;5058807;28;20544;-91
2022/12/22 11:03:03;;;;;;;10.95;4.43;;;;;;;;;;5059187;28;20202;-93
2022/12/22 11:05:31;;;;;;;9.73;3.88;;;;;;;;;;5059243;28;20056;-94
2022/12/22 11:07:59;;;;;;;12.52;4.15;;;;;;;;;;5059374;28;20145;-93
2022/12/22 11:10:35;;;;;;;10.45;4.85;;;;;;;;;;5058988;28;20170;-94
2022/12/22 11:13:09;;;;;;;12.07;3.88;;;;;;;;;;5059133;28;20125;-92
2022/12/22 11:15:38;;;;;;;10.38;4.15;;;;;;;;;;5058244;28;20054;-92
2022/12/22 11:18:18;;;;;;;13.88;3.88;;;;;;;;;;5058435;28;20048;-92
2022/12/22 11:20:47;;;;;;;9.20;4.15;;;;;;;;;;5058586;28;20078;-93
2022/12/22 11:23:17;;;;;;;13.68;4.40;;;;;;;;;;5075564;28;20136;-91
2022/12/22 11:25:58;;;;;;;9.15;3.42;;;;;;;;;;5058567;28;20056;-93
2022/12/22 11:28:43;;;;;;;7.45;3.80;;;;;;;;;;5058641;28;20392;-92
2022/12/22 11:31:09;;;;;;;8.93;3.63;;;;;;;;;;5058670;28;20050;-91
2022/12/22 11:33:35;;;;;;;15.00;3.92;;;;;;;;;;5058366;28;20130;-91
2022/12/22 11:36:05;;;;;;;9.55;4.00;;;;;;;;;;5058452;28;20052;-91
2022/12/22 11:39:10;;;;;;;10.07;3.30;;;;;;;;;;5059002;28;20052;-92
2022/12/22 11:42:00;;;;;;;14.32;5.82;;;8.30;99.90;;;;;;4975066;28;20050;-91
2022/12/22 11:44:49;;;;;;;15.77;3.47;;;;;;;;;;4975244;28;20046;-92
2022/12/22 11:47:34;;;;;;;9.73;3.67;;;;;;;;;;5032121;28;20415;-93
2022/12/22 11:50:19;;;;;;;11.63;4.75;;;;;;;;;;5057506;28;20052;-91
2022/12/22 11:52:45;;;;;;;7.05;3.95;;;;;;;;;;5057755;28;20138;-91
2022/12/22 11:55:16;;;;;;;8.85;4.70;;;;;;;;;;5057155;28;20048;-91
2022/12/22 11:57:52;;;;;;;15.82;4.35;;;;;;;;;;5057874;28;20044;-91
2022/12/22 12:00:18;;;;;;;11.30;4.15;;;;;;;;;;5057328;28;20052;-91
2022/12/22 12:03:00;;;;;;;9.32;4.47;;;;;;;;;;5057629;28;20048;-91
2022/12/22 12:05:29;;;;;;;14.02;4.13;;;;;;;;;;5057794;28;20055;-91
2022/12/22 12:08:09;;;;;;;7.90;3.58;;;;;;;;;;5057426;28;20048;-91
2022/12/22 12:10:47;;;;;;;15.75;4.20;;;;;;;;;;5058049;28;20051;-91
2022/12/22 12:13:42;;;;;;;8.38;4.25;;;;;;;;;;5057494;28;20051;-91
2022/12/22 12:16:08;;;;;;;8.10;3.75;;;;;;;;;;4986677;28;20181;-91
2022/12/22 12:18:40;;;;;;;13.63;5.05;;;;;;;;;;5057379;28;20048;-91
2022/12/22 12:21:17;;;;;;;10.30;4.25;;;;;;;;;;5057245;28;20051;-90
2022/12/22 12:24:01;;;;;;;8.15;4.03;;;;;;;;;;5074004;28;20060;-90
2022/12/22 12:26:33;;;;;;;14.98;4.20;;;;;;;;;;5057452;28;20048;-91
2022/12/22 12:29:13;;;;;;;9.13;3.67;;;;;;;;;;5057182;28;20052;-90
2022/12/22 12:31:48;;;;;;;16.15;4.90;;;;;;;;;;5057591;28;20147;-91
2022/12/22 12:34:15;;;;;;;14.70;3.70;;;;;;;;;;5057007;28;20050;-90
2022/12/22 12:36:55;;;;;;;18.48;4.95;;;;;;;;;;5057411;28;20145;-91
2022/12/22 12:39:27;;;;;;;16.52;3.92;;;;;;;;;;5057735;28;20084;-91
2022/12/22 12:41:56;;;;;;;9.57;3.83;;;;;;;;;;5057168;28;20141;-91
2022/12/22 12:44:31;;;;;;;12.05;4.38;;;;;;;;;;5057163;28;20059;-91
2022/12/22 12:47:04;;;;;;;10.05;3.92;;;;;;;;;;5056803;28;20048;-91
2022/12/22 12:49:33;;;;;;;9.40;5.07;;;;;;;;;;5056763;28;20059;-91
2022/12/22 12:52:02;;;;;;;14.63;4.15;;;;;;;;;;5057485;28;20048;-91
2022/12/22 12:54:28;;;;;;;7.55;3.80;;;;;;;;;;5041461;28;20138;-91
2022/12/22 12:57:06;;;;;;;13.95;4.25;;;;;;;;;;5057001;28;20048;-91
2022/12/22 12:59:39;;;;;;;15.75;4.15;;;;;;;;;;5057340;28;20135;-91
2022/12/22 13:02:25;;;;;;;12.52;3.63;;;;;;;;;;5057103;28;20495;-91
2022/12/22 13:05:14;;;;;;;16.75;4.28;;;;;;;;;;5057711;28;20496;-93
2022/12/22 13:07:59;;;;;;;9.75;4.20;;;;;;;;;;5078237;28;20048;-94
2022/12/22 13:10:26;;;;;;;9.27;4.43;;;;;;;;;;5061827;28;20047;-93
2022/12/22 13:12:53;;;;;;;6.20;3.85;;;;;;;;;;5062654;28;20055;-91
2022/12/22 13:15:39;;;;;;;7.68;3.15;;;;;;;;;;5065764;28;20117;-93
2022/12/22 13:18:23;;;;;;;10.98;4.00;;;;;;;;;;5098435;28;20069;-93
2022/12/22 13:20:59;;;;;;;12.80;3.80;;;;;;;;;;5097672;28;20112;-90
2022/12/22 13:23:35;;;;;;;8.05;3.67;;;;;;;;;;5097883;28;20055;-92
2022/12/22 13:26:13;;;;;;;9.18;3.22;;;;;;;;;;5097857;28;20468;-92
2022/12/22 13:28:40;;;;;;;13.65;5.75;;;;;;;;;;5097720;28;20047;-94
2022/12/22 13:31:23;;;;;;;8.63;5.00;;;;;;;;;;5099220;28;20142;-95
2022/12/22 13:34:05;;;;;;;17.52;4.35;;;;;;;;;;5121551;22;20044;-89
2022/12/22 13:36:32;;;;;;;16.10;4.05;;;;;;;;;;5079308;23;20048;-94
2022/12/22 13:39:03;;;;;;;7.28;3.47;;;;;;;;;;5060948;28;20052;-94
2022/12/22 13:41:30;;;;;;;10.45;4.30;;;;;;;;;;5061007;28;20496;-92
2022/12/22 13:43:58;;;;;;;14.40;4.40;;;;;;;;;;5045342;28;20518;-93
2022/12/22 13:46:24;;;;;;;8.48;3.67;;;;;;;;;;5078797;28;20450;-91
2022/12/22 13:48:52;;;;;;;11.18;3.70;;;;;;;;;;5061069;28;20052;-92
2022/12/22 13:51:23;;;;;;;10.05;4.72;;;;;;;;;;5061450;28;20058;-96
2022/12/22 13:53:54;;;;;;;8.10;3.72;;;;;;;;;;5065430;28;20075;-90
2022/12/22 13:56:22;;;;;;;8.45;4.15;;;;;;;;;;5067681;28;20048;-95
2022/12/22 13:58:54;;;;;;;10.95;4.22;;;;;;;;;;5062058;28;20130;-90
2022/12/22 14:01:20;;;;;;;11.95;4.72;;;;;;;;;;5077962;28;20138;-91
2022/12/22 14:03:57;;;;;;;12.60;4.90;;;;;;;;;;5060836;28;20040;-93
2022/12/22 14:06:28;;;;;;;17.92;5.13;;;;;;;;;;5061370;28;20052;-95
2022/12/22 14:09:08;;;;;;;14.85;4.53;;;;;;;;;;5076257;28;20047;-94
2022/12/22 14:11:34;;;;;;;13.00;5.95;;;;;;;;;;5059124;28;20044;-92
2022/12/22 14:14:00;;;;;;;8.18;4.07;;;;;;;;;;5059567;28;20055;-92
2022/12/22 14:16:26;;;;;;;9.43;4.63;;;;;;;;;;5075621;28;20043;-90
2022/12/22 14:18:53;;;;;;;12.13;4.95;;;;;;;;;;5076756;28;20048;-91
2022/12/22 14:21:19;;;;;;;10.25;4.57;;;;;;;;;;5071448;28;20147;-92
2022/12/22 14:23:45;;;;;;;14.80;3.75;;;;;;;;;;5063372;28;20044;-91
2022/12/22 14:26:16;;;;;;;9.10;3.92;;;;;;;;;;5079742;28;20047;-93
2022/12/22 14:28:49;;;;;;;8.48;3.63;;;;;;;;;;5081412;28;20055;-93
2022/12/22 14:31:15;;;;;;;23.65;7.28;;;;;;;;;;5079720;28;20474;-90
2022/12/22 14:34:03;;;;;;;10.25;3.33;;;;;;;;;;5096149;28;20105;-91
2022/12/22 14:36:36;;;;;;;13.65;3.58;;;;;;;;;;5078687;28;20062;-91
2022/12/22 14:39:08;;;;;;;10.73;3.42;;;;;;;;;;5078917;28;20099;-91
2022/12/22 14:41:54;;;;;;;7.90;3.22;;;;;;;;;;5078717;28;20511;-91
2022/12/22 14:44:23;;;;;;;11.35;3.22;;;;;;;;;;5078645;28;20395;-91
2022/12/22 14:47:05;;;;;;;9.70;3.20;;;;;;;;;;5078578;28;20040;-91
2022/12/22 14:49:31;;;;;;;5.70;2.55;;;;;;;;;;5079055;28;20055;-90
2022/12/22 14:52:08;;;;;;;10.30;3.00;;;;;;;;;;5078949;28;20050;-90
2022/12/22 14:54:34;;;;;;;10.68;2.63;;;;;;;;;;5078682;28;20563;-91
2022/12/22 14:57:04;;;;;;;6.88;2.22;;;;;;;;;;5062327;28;20124;-91
2022/12/22 14:59:31;;;;;;;5.60;2.00;;;;;;;;;;5095905;28;20048;-90
2022/12/22 15:02:18;;;;;;;7.95;2.47;;;;;;;;;;5095519;28;20047;-91
2022/12/22 15:04:44;;;;;;;6.03;2.53;;;;;;;;;;5095270;28;20147;-92
2022/12/22 15:07:18;;;;;;;13.50;3.63;;;;;;;;;;5078436;28;20059;-91
2022/12/22 15:09:45;;;;;;;6.03;3.00;;;;;;;;;;5078914;28;20056;-94
2022/12/22 15:12:13;;;;;;;12.00;2.50;;;;;;;;;;5079397;28;20051;-95
2022/12/22 15:14:40;;;;;;;8.73;2.70;;;;;;;;;;5079687;28;20051;-95
2022/12/22 15:17:07;;;;;;;8.30;3.08;;;;;;;;;;5096032;28;20143;-94
2022/12/22 15:19:34;;;;;;;10.18;3.15;;;;;;;;;;5079485;28;20056;-96
2022/12/22 15:22:01;;;;;;;10.07;3.10;;;;;;;;;;5078997;28;20087;-93
2022/12/22 15:24:28;;;;;;;10.07;2.58;;;;;;;;;;5062534;28;20046;-91
2022/12/22 15:26:54;;;;;;;9.80;2.85;;;;;;;;;;5095434;28;20184;-92
2022/12/22 15:29:20;;;;;;;8.90;3.03;;;;;;;;;;5077558;28;20134;-91
2022/12/22 15:31:46;;;;;;;6.90;2.70;;;;;;;;;;5078346;28;20062;-92
2022/12/22 15:34:14;;;;;;;7.05;2.42;;;;;;;;;;5078527;28;20032;-91
2022/12/22 15:36:40;;;;;;;4.60;2.83;;;;;;;;;;5078126;28;20452;-90
2022/12/22 15:39:13;;;;;;;10.20;3.38;;;;;;;;;;5061832;28;20400;-91
2022/12/22 15:41:39;;;;;;;8.85;3.30;;;;;;;;;;5077814;28;20235;-91
2022/12/22 15:44:05;;;;;;;7.72;3.50;;;;;;;;;;5061163;28;20105;-91
2022/12/22 15:46:31;;;;;;;5.63;3.28;;;;;;;;;;5077640;28;20419;-91
2022/12/22 15:48:58;;;;;;;9.57;3.85;;;;;;;;;;5077744;28;20059;-91
2022/12/22 15:51:25;;;;;;;10.52;3.67;;;;;;;;;;5061166;28;20079;-91
2022/12/22 15:53:51;;;;;;;10.57;4.13;;;;;;;;;;5077904;28;20044;-91
2022/12/22 15:56:19;;;;;;;14.05;4.60;;;;;;;;;;5077860;28;20039;-91
2022/12/22 15:58:46;;;;;;;10.93;4.63;;;;;;;;;;5077911;28;20056;-91
2022/12/22 16:01:12;;;;;;;7.20;5.57;;;;;;;;;;5077578;28;20052;-91
2022/12/22 16:03:38;;;;;;;15.98;6.43;;;;;;;;;;5077674;28;20568;-91
2022/12/22 16:06:08;;;;;;;14.23;6.30;;;;;;;;;;5061361;28;20051;-91
2022/12/22 16:08:36;;;;;;;7.88;6.18;;;;;;;;;;5077928;28;20338;-91
2022/12/22 16:11:03;;;;;;;12.32;6.38;;;;;;;;;;5094762;28;20052;-91
2022/12/22 16:13:29;;;;;;;11.40;6.75;;;;;;;;;;5078182;28;20051;-91
2022/12/22 16:15:56;;;;;;;10.90;6.10;;;;;;;;;;5077591;28;20047;-91
2022/12/22 16:18:22;;;;;;;12.10;6.88;;;;;;;;;;5077706;28;20055;-91
2022/12/22 16:20:49;;;;;;;11.35;7.10;;;;;;;;;;5078010;28;20127;-91
2022/12/22 16:23:25;;;;;;;12.57;6.97;;;;;;;;;;5077442;28;20044;-91
2022/12/22 16:25:51;;;;;;;16.60;7.22;;;;;;;;;;5077733;28;20048;-91
2022/12/22 16:28:22;;;;;;;11.82;7.35;;;;;;;;;;5061117;28;20047;-91
2022/12/22 16:30:48;;;;;;;12.18;7.50;;;;;;;;;;5077273;28;20048;-91
2022/12/22 16:33:15;;;;;;;22.83;8.63;;;;;;;;;;5077747;28;20105;-91
2022/12/22 16:35:41;;;;;;;17.40;7.10;;;;;;;;;;5081863;28;20082;-91
2022/12/22 16:38:08;;;;;;;16.75;7.53;;;;;;;;;;5079332;28;20098;-91
2022/12/22 16:40:44;;;;;;;11.43;7.25;;;;;;;;;;5078686;28;20104;-91
2022/12/22 16:43:21;;;;;;;10.38;6.10;;;;;;;;;;5081286;28;20062;-91
2022/12/22 16:45:48;;;;;;;13.30;6.95;;;;;;;;;;5081040;28;20126;-90
2022/12/22 16:48:15;;;;;;;10.38;6.72;;;;;;;;;;5081117;28;20048;-91
2022/12/22 16:50:44;;;;;;;11.68;6.93;;;;;;;;;;5081235;28;20542;-91
2022/12/22 16:53:13;;;;;;;12.65;6.75;;;;;;;;;;5081063;28;20408;-91
2022/12/22 16:55:39;;;;;;;10.32;7.30;;;;;;;;;;5081435;28;20411;-91
2022/12/22 16:58:05;;;;;;;11.93;8.27;;;;;;;;;;5080982;28;20059;-91
2022/12/22 17:00:34;;;;;;;21.13;10.93;;;;;;;;;;5081448;28;20047;-91
2022/12/22 17:03:03;;;;;;;14.50;10.75;;;;;;;;;;5081456;28;20062;-91
2022/12/22 17:05:37;;;;;;;16.55;10.70;;;;;;;;;;5097520;28;20175;-91
2022/12/22 17:08:05;;;;;;;;;;;7.60;99.90;;;;;;5098168;28;20090;-91
2022/12/22 17:10:31;;;;;;;21.63;11.45;;;;;;;;;;5080703;28;20018;-91
2022/12/22 17:12:58;;;;;;;27.05;15.13;;;;;;;;;;5080746;28;20054;-91
2022/12/22 17:15:24;;;;;;;21.50;12.85;;;;;;;;;;5080675;28;20140;-91
2022/12/22 17:17:51;;;;;;;27.65;14.50;;;;;;;;;;5080494;28;20097;-91
2022/12/22 17:20:18;;;;;;;24.23;16.30;;;;;;;;;;5080366;28;20059;-91
2022/12/22 17:22:54;;;;;;;30.73;17.38;;;;;;;;;;5080557;28;20507;-91
2022/12/22 17:25:23;;;;;;;28.38;16.40;;;;;;;;;;5080856;28;20061;-91
2022/12/22 17:27:49;;;;;;;29.27;17.55;;;;;;;;;;5080324;28;20134;-91
2022/12/22 17:30:20;;;;;;;29.02;18.15;;;;;;;;;;5080350;28;20063;-90
2022/12/22 17:32:46;;;;;;;32.35;18.77;;;;;;;;;;5097575;28;20055;-90
2022/12/22 17:35:17;;;;;;;33.28;18.88;;;;;;;;;;5079819;28;20063;-91
2022/12/22 17:37:44;;;;;;;31.58;20.02;;;;;;;;;;5096951;28;20135;-92
2022/12/22 17:40:15;;;;;;;29.27;18.67;;;;;;;;;;5096776;28;20108;-89
2022/12/22 17:42:41;;;;;;;27.10;18.13;;;;;;;;;;5097251;28;20090;-91
2022/12/22 17:45:12;;;;;;;30.45;18.38;;;;;;;;;;5096691;28;20051;-91
2022/12/22 17:47:38;;;;;;;28.75;17.40;;;;;;;;;;5097048;28;20138;-90
2022/12/22 17:50:04;;;;;;;29.58;18.63;;;;;;;;;;5096811;28;20413;-90
2022/12/22 17:52:30;;;;;;;33.83;19.33;;;;;;;;;;5062917;28;20090;-89
2022/12/22 17:54:56;;;;;;;35.95;17.83;;;;;;;;;;5063313;28;20439;-90
2022/12/22 17:57:24;;;;;;;39.47;19.00;;;;;;;;;;5063724;28;20104;-89
2022/12/22 17:59:50;;;;;;;30.25;18.75;;;;;;;;;;5096831;28;20412;-90
2022/12/22 18:02:17;;;;;;;29.80;18.17;;;;;;;;;;5096692;28;20085;-90
2022/12/22 18:04:44;;;;;;;34.40;19.75;;;;;;;;;;5096719;28;20075;-92
2022/12/22 18:07:10;;;;;;;34.90;19.40;;;;;;;;;;5096484;28;20419;-90
2022/12/22 18:09:37;;;;;;;31.42;19.02;;;;;;;;;;5096285;28;20193;-92
2022/12/22 18:12:03;;;;;;;33.65;18.63;;;;;;;;;;5096232;28;20479;-90
2022/12/22 18:14:29;;;;;;;32.13;18.33;;;;;;;;;;5096368;28;20086;-90